Time;durP1;ratioP1;P1;durP2;ratioP2;P2;SDS_P1;SDS_P2;PMS_P1;PMS_P2;Temp;Humidity;BMP_temperature;BMP_pressure;BME280_temperature;BME280_humidity;BME280_pressure;Samples;Min_cycle;Max_cycle;Signal;HPM_P1;HPM_P2
2022/08/06 00:10:21;;;;;;;7.60;6.00;;;;;;;24.83;91.06;100256.67;680167;1277;22442;-82
2022/08/06 00:25:32;;;;;;;7.10;5.60;;;;;;;24.57;94.25;100286.36;680169;1277;22551;-82
2022/08/06 00:40:47;;;;;;;8.60;6.10;;;;;;;24.39;96.75;100301.91;680243;1277;22399;-80
2022/08/06 00:56:01;;;;;;;8.60;7.70;;;;;;;24.30;98.98;100308.45;680045;1277;23413;-82
2022/08/06 01:11:12;;;;;;;9.90;7.80;;;;;;;24.20;99.97;100301.15;679956;1277;22792;-82
2022/08/06 01:26:23;;;;;;;9.30;8.30;;;;;;;24.19;100.00;100318.93;680498;1277;22442;-80
2022/08/06 01:41:39;;;;;;;15.20;9.20;;;;;;;24.10;100.00;100316.00;680532;1277;22396;-80
2022/08/06 01:57:01;;;;;;;12.10;9.20;;;;;;;23.96;100.00;100343.52;680042;1277;22318;-81
2022/08/06 02:12:09;;;;;;;13.90;9.10;;;;;;;23.85;100.00;100353.08;680044;1277;22164;-80
2022/08/06 02:27:16;;;;;;;12.60;7.90;;;;;;;23.60;100.00;100353.84;680269;1275;22564;-80
2022/08/06 02:42:31;;;;;;;10.20;8.40;;;;;;;23.53;100.00;100367.45;680346;1276;22536;-82
2022/08/06 02:57:39;;;;;;;13.10;8.10;;;;;;;23.48;100.00;100377.13;679977;1275;31018;-82
2022/08/06 03:12:56;;;;;;;17.00;8.70;;;;;;;23.25;100.00;100376.66;679040;1276;1236900;-81
2022/08/06 03:28:06;;;;;;;16.00;8.80;;;;;;;23.19;100.00;100398.02;680344;1276;23207;-82
2022/08/06 03:43:10;;;;;;;11.80;7.70;;;;;;;23.00;100.00;100411.98;680264;1277;22260;-81
2022/08/06 03:58:32;;;;;;;7.50;6.10;;;;;;;22.68;100.00;100447.59;679093;1277;22527;-84
2022/08/06 04:13:36;;;;;;;5.00;3.70;;;;;;;22.40;100.00;100484.04;679311;1277;22583;-83
2022/08/06 04:29:01;;;;;;;4.90;3.50;;;;;;;22.02;100.00;100524.77;679986;1277;22473;-83
2022/08/06 04:44:04;;;;;;;4.70;2.70;;;;;;;21.94;100.00;100560.71;679727;1277;22444;-84
2022/08/06 04:59:16;;;;;;;3.00;1.70;;;;;;;21.49;100.00;100598.82;679799;1277;23267;-83
2022/08/06 05:14:27;;;;;;;4.50;2.20;;;;;;;20.89;100.00;100615.80;679560;1278;22703;-85
2022/08/06 05:29:31;;;;;;;3.60;2.10;;;;;;;20.63;100.00;100652.38;679990;1277;22449;-84
2022/08/06 05:44:36;;;;;;;7.10;2.20;;;;;;;20.41;100.00;100694.03;679503;1278;23129;-84
2022/08/06 05:59:43;;;;;;;5.20;2.20;;;;;;;20.32;100.00;100724.02;680219;1276;22522;-85
2022/08/06 06:15:02;;;;;;;8.30;4.10;;;;;;;20.45;100.00;100731.70;680053;1277;22651;-85
2022/08/06 06:30:41;;;;;;;7.40;3.30;;;;;;;20.92;100.00;100729.64;679357;1278;22417;-84
2022/08/06 06:46:08;;;;;;;3.70;2.00;;;;;;;20.72;100.00;100715.94;679978;1275;22408;-83
2022/08/06 07:01:32;;;;;;;3.50;1.70;;;;;;;20.56;100.00;100731.60;680139;1277;22627;-84
2022/08/06 07:16:37;;;;;;;4.00;1.60;;;;;;;20.75;100.00;100740.19;679902;1277;22464;-83
2022/08/06 07:31:44;;;;;;;4.00;1.60;;;;;;;20.92;100.00;100751.75;679876;1277;22477;-83
2022/08/06 07:46:54;;;;;;;6.40;1.70;;;;;;;21.32;100.00;100777.14;679862;1277;22604;-83
2022/08/06 08:02:00;;;;;;;2.90;1.30;;;;;;;21.71;100.00;100801.69;680417;1277;22349;-83
2022/08/06 08:17:03;;;;;;;3.50;1.60;;;;;;;21.95;99.34;100832.63;679904;1275;23293;-83
2022/08/06 08:32:09;;;;;;;1.80;1.10;;;;;;;22.00;98.21;100864.34;680228;1277;22568;-83
2022/08/06 08:47:20;;;;;;;2.20;1.10;;;;;;;22.35;95.17;100883.31;679564;1277;22451;-81
2022/08/06 09:02:24;;;;;;;5.20;1.50;;;;;;;22.36;92.27;100905.12;679806;1277;23364;-81
2022/08/06 09:17:29;;;;;;;2.70;1.00;;;;;;;22.48;89.98;100933.23;679832;1277;22480;-81
2022/08/06 09:32:55;;;;;;;2.40;1.10;;;;;;;22.74;87.68;100955.64;679262;1278;22468;-80
2022/08/06 09:48:01;;;;;;;4.00;1.30;;;;;;;23.11;85.39;100974.42;680052;1277;22552;-81
2022/08/06 10:03:09;;;;;;;4.20;1.40;;;;;;;23.19;81.69;100978.02;680097;1277;22502;-81
2022/08/06 10:18:41;;;;;;;3.30;1.50;;;;;;;23.92;78.63;100984.31;679921;1277;22734;-80
2022/08/06 10:34:10;;;;;;;2.40;0.80;;;;;;;24.43;75.44;100984.57;679823;1277;22562;-80
2022/08/06 10:49:15;;;;;;;9.10;1.30;;;;;;;24.15;73.12;100979.20;679725;1277;22566;-80
2022/08/06 11:04:58;;;;;;;2.90;1.50;;;;;;;24.31;72.34;100982.62;680191;1277;22419;-81
2022/08/06 11:20:02;;;;;;;2.80;1.10;;;;;;;25.21;69.86;100981.97;679863;1277;23446;-80
2022/08/06 11:35:34;;;;;;;1.50;0.80;;;;;;;25.75;67.67;100983.57;679124;1278;22453;-81
2022/08/06 11:50:54;;;;;;;5.30;0.80;;;;;;;26.41;63.82;100982.10;679085;1278;22629;-81
2022/08/06 12:05:59;;;;;;;4.60;1.30;;;;;;;26.38;63.02;100983.04;678872;1277;22580;-82
2022/08/06 12:21:09;;;;;;;2.30;1.00;;;;;;;26.80;59.98;100977.92;678357;1278;22477;-81
2022/08/06 12:36:13;;;;;;;3.50;0.90;;;;;;;26.62;59.67;100979.25;678402;1278;22462;-82
2022/08/06 12:51:34;;;;;;;0.80;0.70;;;;;;;27.89;59.48;100984.83;678911;1279;22504;-81
2022/08/06 13:06:39;;;;;;;2.70;0.90;;;;;;;27.92;58.49;100980.35;679428;1278;23296;-82
2022/08/06 13:21:45;;;;;;;42.40;32.30;;;;;;;28.21;58.05;100993.64;679234;1277;22673;-82
2022/08/06 13:37:01;;;;;;;10.50;9.30;;;;;;;28.24;56.58;100992.48;679185;1278;22302;-80
2022/08/06 13:52:07;;;;;;;1.80;0.70;;;;;;;28.84;53.59;100986.20;679657;1278;22607;-80
2022/08/06 14:07:11;;;;;;;18.30;11.20;;;;;;;28.78;51.32;100985.75;678588;1279;23310;-82
2022/08/06 14:22:16;;;;;;;3.90;1.10;;;;;;;28.10;52.01;100999.71;678821;1277;31515;-80
2022/08/06 14:37:19;;;;;;;24.10;18.60;;;;;;;27.65;51.91;101009.97;678702;1277;22470;-81
2022/08/06 14:52:34;;;;;;;2.90;1.70;;;;;;;36.52;46.49;101006.29;679115;1279;22579;-82
2022/08/06 15:07:38;;;;;;;7.50;2.50;;;;;;;31.50;45.17;100994.45;678219;1278;1217543;-83
2022/08/06 15:22:44;;;;;;;3.70;0.90;;;;;;;28.11;45.11;100986.43;679389;1278;22476;-81
2022/08/06 15:37:53;;;;;;;1.20;0.60;;;;;;;27.62;46.42;101002.94;679328;1278;22199;-79
2022/08/06 15:53:06;;;;;;;3.10;2.10;;;;;;;27.53;46.85;101007.13;679030;1277;22437;-79
2022/08/06 16:08:26;;;;;;;2.10;1.30;;;;;;;27.74;45.77;101012.08;679201;1277;22502;-79
2022/08/06 16:23:37;;;;;;;2.50;1.00;;;;;;;27.33;45.91;101014.79;679161;1277;22487;-84
2022/08/06 16:39:00;;;;;;;2.20;0.90;;;;;;;27.07;46.24;101017.97;679229;1278;22459;-82
2022/08/06 16:54:04;;;;;;;4.50;2.00;;;;;;;26.54;45.73;101028.29;679184;1278;23403;-84
2022/08/06 17:09:19;;;;;;;2.10;1.40;;;;;;;25.67;46.64;101046.39;679277;1277;22444;-83
2022/08/06 17:24:23;;;;;;;4.70;2.60;;;;;;;25.18;47.04;101054.37;679495;1278;22450;-81
2022/08/06 17:39:40;;;;;;;4.10;2.20;;;;;;;24.89;47.43;101063.93;679441;1279;22458;-83
2022/08/06 17:54:46;;;;;;;5.40;1.90;;;;;;;24.34;47.98;101077.17;679709;1277;22463;-84
2022/08/06 18:25:21;;;;;;;4.00;2.00;;;;;;;23.11;50.36;101114.04;679284;1277;22560;-83
2022/08/06 18:40:25;;;;;;;3.60;1.60;;;;;;;22.50;52.12;101131.82;679337;1277;22456;-83
2022/08/06 18:55:42;;;;;;;4.80;2.20;;;;;;;21.92;54.64;101144.50;679008;1277;22463;-82
2022/08/06 19:11:01;;;;;;;4.40;1.80;;;;;;;21.29;56.96;101162.92;679397;1278;22459;-83
2022/08/06 19:26:08;;;;;;;5.10;2.70;;;;;;;20.86;58.77;101182.28;679290;1278;23157;-82
2022/08/06 19:41:16;;;;;;;15.80;6.80;;;;;;;20.47;60.96;101197.07;679430;1279;22455;-83
2022/08/06 19:56:21;;;;;;;8.30;4.10;;;;;;;20.02;62.67;101212.71;679497;1278;22470;-81
2022/08/06 20:11:32;;;;;;;7.70;4.40;;;;;;;19.38;64.69;101235.77;679527;1277;22845;-81
2022/08/06 20:26:56;;;;;;;7.40;4.10;;;;;;;18.99;66.14;101244.30;679286;1278;22459;-83
2022/08/06 20:42:03;;;;;;;9.40;3.90;;;;;;;18.45;67.40;101247.58;678546;1276;22604;-81
2022/08/06 20:57:14;;;;;;;7.00;3.60;;;;;;;17.88;70.50;101257.74;679547;1278;22444;-81
2022/08/06 21:12:18;;;;;;;8.50;4.10;;;;;;;17.43;72.26;101265.54;679672;1278;22494;-83
2022/08/06 21:27:22;;;;;;;4.30;2.20;;;;;;;17.08;74.10;101267.89;679356;1279;22543;-81
2022/08/06 21:42:25;;;;;;;5.10;2.80;;;;;;;16.81;75.22;101280.13;680452;1278;22432;-81
2022/08/06 21:57:29;;;;;;;4.80;2.40;;;;;;;16.44;76.60;101278.73;679024;1279;22458;-82
2022/08/06 22:12:50;;;;;;;7.00;3.10;;;;;;;16.32;77.35;101276.09;678822;1279;23291;-83
2022/08/06 22:28:14;;;;;;;7.50;2.10;;;;;;;16.06;77.73;101282.45;678592;1277;22916;-82
2022/08/06 22:43:36;;;;;;;5.10;2.90;;;;;;;15.78;78.75;101284.86;678588;1277;22464;-82
2022/08/06 22:58:58;;;;;;;6.50;3.50;;;;;;;15.36;79.32;101291.63;678449;1279;23551;-83
2022/08/06 23:14:21;;;;;;;6.20;3.60;;;;;;;15.00;79.56;101293.95;678692;1277;22483;-82
2022/08/06 23:29:35;;;;;;;5.50;3.10;;;;;;;14.78;81.07;101300.33;679321;1277;22446;-82
2022/08/06 23:44:59;;;;;;;4.10;2.80;;;;;;;14.47;81.69;101303.44;679183;1278;22722;-82
